createdAt,value
2024-04-05T00:00:35.781Z,5.5
2024-04-05T00:05:41.442Z,5.6
2024-04-05T00:10:47.283Z,5.4
2024-04-05T00:16:11.904Z,5.3
2024-04-05T00:21:33.373Z,5.2
2024-04-05T00:26:54.606Z,5.1
2024-04-05T00:31:59.540Z,4.9
2024-04-05T00:37:20.646Z,4.8
2024-04-05T00:42:41.468Z,4.6
2024-04-05T00:48:06.728Z,4.4
2024-04-05T00:53:28.342Z,4.4
2024-04-05T00:58:18.564Z,4.3
2024-04-05T01:03:24.153Z,4.1
2024-04-05T01:09:00.430Z,4.1
2024-04-05T01:14:37.003Z,3.9
2024-04-05T01:19:57.897Z,3.9
2024-04-05T01:25:35.008Z,3.8
2024-04-05T01:31:11.084Z,3.7
2024-04-05T01:36:46.510Z,3.7
2024-04-05T01:42:23.785Z,3.6
2024-04-05T01:47:45.063Z,3.5
2024-04-05T01:53:06.873Z,3.4
2024-04-05T01:58:28.184Z,3.4
2024-04-05T02:04:04.996Z,3.3
2024-04-05T02:09:41.539Z,3.3
2024-04-05T02:15:18.287Z,3.3
2024-04-05T02:20:55.082Z,3.2
2024-04-05T02:26:31.122Z,3.2
2024-04-05T02:32:07.720Z,3.1
2024-04-05T02:37:28.502Z,3
2024-04-05T02:43:05.207Z,2.9
2024-04-05T02:48:41.606Z,2.9
2024-04-05T02:53:47.082Z,2.9
2024-04-05T02:59:23.106Z,2.8
2024-04-05T03:04:59.266Z,2.6
2024-04-05T03:10:35.569Z,2.6
2024-04-05T03:16:13.038Z,2.6
2024-04-05T03:21:49.499Z,2.5
2024-04-05T03:27:25.243Z,2.4
2024-04-05T03:33:01.852Z,2.4
2024-04-05T03:38:39.029Z,2.3
2024-04-05T03:44:00.246Z,2.3
2024-04-05T03:48:50.413Z,2.3
2024-04-05T03:54:27.625Z,2.2
2024-04-05T04:00:04.101Z,2.2
2024-04-05T04:05:39.792Z,2.3
2024-04-05T04:11:03.007Z,2.3
2024-04-05T04:16:39.627Z,2.3
2024-04-05T04:22:15.438Z,2.5
2024-04-05T04:27:36.331Z,2.7
2024-04-05T04:32:59.954Z,3
2024-04-05T04:38:22.644Z,3.3
2024-04-05T04:43:44.041Z,3.6
2024-04-05T04:49:05.086Z,4.3
2024-04-05T04:54:27.928Z,5.7
2024-04-05T04:59:48.951Z,7.8
2024-04-05T05:04:39.710Z,9.9
2024-04-05T05:10:00.686Z,12.1
2024-04-05T05:15:06.509Z,13.9
2024-04-05T05:20:31.287Z,15.6
2024-04-05T05:25:52.731Z,17.5
2024-04-05T05:31:14.346Z,19.9
2024-04-05T05:36:35.478Z,22.3
2024-04-05T05:41:58.747Z,24.9
2024-04-05T05:47:19.839Z,27.7
2024-04-05T05:52:40.836Z,30.8
2024-04-05T05:58:05.432Z,34.3
2024-04-05T06:03:42.038Z,38.2
2024-04-05T06:09:03.174Z,41.9
2024-04-05T06:14:24.367Z,45.4
2024-04-05T06:19:46.067Z,48.2
2024-04-05T06:24:51.669Z,50.7
2024-04-05T06:30:12.745Z,53.2
2024-04-05T06:35:36.401Z,55.8
2024-04-05T06:40:57.292Z,57.3
2024-04-05T06:46:17.667Z,61.2
2024-04-05T06:51:42.646Z,55.4
2024-04-05T06:57:06.588Z,46.8
2024-04-05T07:02:12.696Z,48.9
2024-04-05T07:07:33.958Z,56.2
2024-04-05T07:13:10.692Z,57.7
2024-04-05T07:18:31.885Z,55.6
2024-04-05T07:23:55.960Z,52.8
2024-04-05T07:29:16.771Z,54.1
2024-04-05T07:34:39.084Z,55.4
2024-04-05T07:39:45.889Z,56.5
2024-04-05T07:45:06.791Z,57.4
2024-04-05T07:50:28.642Z,59
2024-04-05T07:55:34.311Z,60.1
2024-04-05T08:01:05.966Z,61.3
2024-04-05T08:06:26.817Z,62.2
2024-04-05T08:12:04.156Z,63.3
2024-04-05T08:17:41.468Z,64.3
2024-04-05T08:23:17.547Z,65.2
2024-04-05T08:28:54.018Z,64.4
2024-04-05T08:34:31.620Z,63.7
2024-04-05T08:39:53.087Z,63.9
2024-04-05T08:45:02.869Z,63.4
2024-04-05T08:50:25.838Z,63.6
2024-04-05T08:55:34.088Z,64.1
2024-04-05T09:01:10.562Z,65.4
2024-04-05T09:06:46.575Z,65.9
2024-04-05T09:12:38.318Z,66.9
2024-04-05T09:18:14.738Z,69.1
2024-04-05T09:23:36.316Z,69.6
2024-04-05T09:29:12.235Z,65.9
2024-04-05T09:34:51.891Z,68.8
2024-04-05T09:40:28.659Z,67.9
2024-04-05T09:46:22.360Z,71.5
2024-04-05T09:52:01.379Z,73.3
2024-04-05T09:57:22.708Z,66.5
2024-04-05T10:02:59.567Z,55.6
2024-04-05T10:08:23.836Z,72.1
2024-04-05T10:14:00.773Z,64.9
2024-04-05T10:19:33.865Z,55.3
2024-04-05T10:25:11.157Z,53.3
2024-04-05T10:30:32.528Z,54.2
2024-04-05T10:36:09.048Z,53.5
2024-04-05T10:42:15.229Z,53.1
2024-04-05T10:47:38.895Z,52.3
2024-04-05T10:53:15.326Z,54.6
2024-04-05T10:58:55.020Z,54.6
2024-04-05T11:04:01.223Z,53.2
2024-04-05T11:09:38.233Z,51.5
2024-04-05T11:15:02.751Z,49.6
2024-04-05T11:20:24.120Z,48.9
2024-04-05T11:26:00.422Z,48.3
2024-04-05T11:31:37.216Z,57.2
2024-04-05T11:37:13.637Z,56.1
2024-04-05T11:43:05.566Z,54.1
2024-04-05T11:48:43.244Z,52.4
2024-04-05T11:54:19.905Z,50.1
2024-04-05T11:59:57.853Z,47.6
2024-04-05T12:05:34.330Z,47.1
2024-04-05T12:10:55.923Z,52.9
2024-04-05T12:16:36.499Z,60.9
2024-04-05T12:22:13.740Z,60.1
2024-04-05T12:28:07.007Z,58.4
2024-04-05T12:33:43.818Z,56.8
2024-04-05T12:39:38.075Z,55.1
2024-04-05T12:45:14.290Z,53.2
2024-04-05T12:50:54.578Z,51.2
2024-04-05T12:56:34.484Z,48.9
2024-04-05T13:02:17.758Z,47.3
2024-04-05T13:07:54.336Z,46.1
2024-04-05T13:13:31.853Z,46.1
2024-04-05T13:19:08.736Z,53.6
2024-04-05T13:24:51.047Z,59.8
2024-04-05T13:30:11.495Z,62.9
2024-04-05T13:35:48.356Z,66.1
2024-04-05T13:41:12.857Z,59.6
2024-04-05T13:46:49.330Z,52.9
2024-04-05T13:52:11.005Z,52.1
2024-04-05T13:57:50.090Z,54.6
2024-04-05T14:03:27.535Z,55.8
2024-04-05T14:09:06.120Z,57.7
2024-04-05T14:14:43.798Z,59.1
2024-04-05T14:20:21.616Z,59.7
2024-04-05T14:25:58.936Z,59.6
2024-04-05T14:37:20.494Z,57.1
2024-04-05T14:43:01.099Z,56
2024-04-05T14:48:38.632Z,54.5
2024-04-05T14:54:16.947Z,52.8
2024-04-05T14:59:42.337Z,51.4
2024-04-05T15:05:20.562Z,49.8
2024-04-05T15:10:44.090Z,48.3
2024-04-05T15:15:49.851Z,46.5
2024-04-05T15:21:27.339Z,44.3
2024-04-05T15:26:50.368Z,42.9
2024-04-05T15:32:13.118Z,41.3
2024-04-05T15:37:21.525Z,39.9
2024-04-05T15:42:57.970Z,38.5
2024-04-05T15:48:34.132Z,37.1
2024-04-05T15:54:14.930Z,35.7
2024-04-05T15:59:51.603Z,34.3
2024-04-05T16:05:34.127Z,33
2024-04-05T16:11:10.594Z,31.3
2024-04-05T16:16:46.683Z,29.8
2024-04-05T16:22:22.940Z,28.7
2024-04-05T16:27:58.957Z,27.7
2024-04-05T16:33:35.544Z,26.7
2024-04-05T16:38:56.739Z,26.1
2024-04-05T16:44:33.604Z,25.4
2024-04-05T16:49:54.894Z,24.5
2024-04-05T16:55:18.034Z,23.6
2024-04-05T17:00:56.865Z,22.6
2024-04-05T17:06:33.353Z,21.6
2024-04-05T17:11:53.664Z,20.9
2024-04-05T17:17:30.538Z,20.1
2024-04-05T17:23:07.409Z,19.4
2024-04-05T17:28:30.461Z,18.9
2024-04-05T17:34:06.860Z,18.4
2024-04-05T17:39:43.199Z,18
2024-04-05T17:44:49.149Z,17.6
2024-04-05T17:50:25.780Z,17.1
2024-04-05T17:56:02.401Z,16.6
2024-04-05T18:01:24.329Z,16.1
2024-04-05T18:07:01.502Z,15.8
2024-04-05T18:12:23.092Z,15.4
2024-04-05T18:17:43.656Z,15
2024-04-05T18:23:20.058Z,14.6
2024-04-05T18:28:56.805Z,14.2
2024-04-05T18:34:34.421Z,13.8
2024-04-05T18:40:12.013Z,13.5
2024-04-05T18:45:49.057Z,13.3
2024-04-05T18:51:25.891Z,12.9
2024-04-05T18:56:46.714Z,12.7
2024-04-05T19:02:23.738Z,12.4
2024-04-05T19:08:00.127Z,12.2
2024-04-05T19:13:39.278Z,11.9
2024-04-05T19:19:00.369Z,11.8
2024-04-05T19:24:36.818Z,11.6
2024-04-05T19:30:13.703Z,11.3
2024-04-05T19:35:50.703Z,11.2
2024-04-05T19:41:26.491Z,10.9
2024-04-05T19:46:49.002Z,10.8
2024-04-05T19:52:25.815Z,10.7
2024-04-05T19:57:49.414Z,10.5
2024-04-05T20:03:39.079Z,10.4
2024-04-05T20:09:15.083Z,10.1
2024-04-05T20:14:55.418Z,10
2024-04-05T20:20:17.098Z,9.8
2024-04-05T20:25:56.788Z,9.6
2024-04-05T20:31:34.240Z,9.5
2024-04-05T20:36:54.950Z,9.3
2024-04-05T20:42:15.948Z,9.1
2024-04-05T20:47:52.670Z,8.9
2024-04-05T20:53:13.966Z,8.8
2024-04-05T20:58:37.125Z,8.6
2024-04-05T21:03:57.908Z,8.4
2024-04-05T21:09:33.630Z,8.3
2024-04-05T21:15:09.975Z,8.2
2024-04-05T21:20:40.099Z,8.1
2024-04-05T21:26:16.129Z,7.9
2024-04-05T21:31:36.546Z,7.9
2024-04-05T21:37:13.503Z,7.8
2024-04-05T21:42:35.107Z,7.8
2024-04-05T21:48:13.186Z,7.8
2024-04-05T21:55:16.389Z,7.7
2024-04-05T22:00:37.970Z,7.6
2024-04-05T22:06:00.755Z,7.4
2024-04-05T22:11:21.107Z,7.4
2024-04-05T22:16:55.367Z,7.2
2024-04-05T22:22:16.957Z,7.1
2024-04-05T22:27:22.543Z,7
2024-04-05T22:32:58.814Z,6.9
2024-04-05T22:38:35.660Z,6.9
2024-04-05T22:44:14.577Z,6.8
2024-04-05T22:49:51.306Z,6.7
2024-04-05T22:55:12.694Z,6.6
2024-04-05T23:00:48.489Z,6.6
2024-04-05T23:06:33.964Z,6.5
2024-04-05T23:11:54.804Z,6.4
2024-04-05T23:17:31.490Z,6.3
2024-04-05T23:23:07.499Z,6.2
2024-04-05T23:28:44.605Z,6.2
2024-04-05T23:34:21.365Z,6.2
2024-04-05T23:39:57.663Z,6.1
2024-04-05T23:45:18.896Z,5.9
2024-04-05T23:50:56.612Z,5.9
2024-04-05T23:56:35.252Z,5.8
